| time (UTC) | temp F | wind direction | speed knots | gust knots | rain 1hr in | rain 24hr in | rain mn in | humidity % | barometer mb |
| 20260505083510 | 48 | 88 | 0.0 | 12.2 | 0.24 | 0.50 | 0.50 | 91 | 1005.1 |
| 20260505083014 | 48 | 346 | 1.7 | 12.2 | 0.25 | 0.49 | 0.49 | 90 | 1005.1 |
| 20260505082509 | 49 | 24 | 3.5 | 8.7 | 0.25 | 0.48 | 0.48 | 91 | 1006.8 |
| 20260505082009 | 49 | 4 | 0.9 | 3.5 | 0.24 | 0.46 | 0.46 | 91 | 1008.1 |
| 20260505081507 | 50 | 70 | 0.0 | 2.6 | 0.22 | 0.43 | 0.43 | 91 | 1009.0 |
| 20260505081007 | 50 | 357 | 0.0 | 2.6 | 0.19 | 0.40 | 0.40 | 91 | 1009.0 |
| 20260505080504 | 50 | 53 | 0.0 | 0.0 | 0.17 | 0.38 | 0.38 | 90 | 1009.0 |
| 20260505080001 | 51 | 87 | 0.0 | 0.0 | 0.16 | 0.36 | 0.36 | 88 | 1009.3 |
| 20260505075600 | 52 | 338 | 0.0 | 1.7 | 0.14 | 0.34 | 0.34 | 85 | 1009.7 |
| 20260505075059 | 52 | 278 | 0.0 | 7.0 | 0.13 | 0.32 | 0.32 | 84 | 1010.1 |
| 20260505074558 | 52 | 243 | 0.0 | 7.0 | 0.13 | 0.30 | 0.30 | 84 | 1010.2 |
| 20260505074057 | 53 | 273 | 0.0 | 5.2 | 0.16 | 0.28 | 0.28 | 87 | 1009.8 |
| 20260505073556 | 53 | 271 | 0.0 | 5.2 | 0.21 | 0.26 | 0.26 | 85 | 1009.1 |
| 20260505073054 | 53 | 291 | 0.0 | 0.0 | 0.23 | 0.24 | 0.24 | 85 | 1008.5 |
| 20260505072553 | 52 | 281 | 0.0 | 0.0 | 0.23 | 0.23 | 0.23 | 85 | 1008.2 |
| 20260505072055 | 52 | 326 | 0.0 | 0.0 | 0.22 | 0.22 | 0.22 | 87 | 1007.7 |
| 20260505071554 | 53 | 249 | 0.0 | 0.0 | 0.21 | 0.21 | 0.21 | 85 | 1007.7 |
| 20260505071049 | 54 | 249 | 0.0 | 0.0 | 0.21 | 0.21 | 0.21 | 81 | 1008.0 |
| 20260505070552 | 54 | 279 | 0.0 | 0.0 | 0.21 | 0.21 | 0.21 | 82 | 1007.8 |
| 20260505070047 | 54 | 295 | 0.0 | 0.0 | 0.20 | 0.20 | 0.20 | 81 | 1007.7 |
| 20260505065546 | 54 | 88 | 0.0 | 0.0 | 0.20 | 0.20 | 0.20 | 81 | 1007.2 |
| 20260505065047 | 55 | 274 | 0.0 | 0.0 | 0.18 | 0.18 | 0.18 | 78 | 1007.6 |
| 20260505064544 | 55 | 352 | 0.0 | 7.0 | 0.16 | 0.16 | 0.16 | 80 | 1007.0 |
| 20260505064042 | 57 | 15 | 0.9 | 7.8 | 0.12 | 0.12 | 0.12 | 77 | 1006.5 |
| 20260505063541 | 58 | 314 | 0.0 | 7.8 | 0.04 | 0.04 | 0.04 | 77 | 1006.6 |
| 20260505063039 | 59 | 270 | 0.0 | 7.0 | 0.01 | 0.01 | 0.01 | 76 | 1006.6 |
| 20260505062538 | 59 | 288 | 0.9 | 5.2 | 0.00 | 0.00 | 0.00 | 75 | 1006.3 |
| 20260505062038 | 59 | 309 | 0.0 | 5.2 | 0.00 | 0.00 | 0.00 | 75 | 1005.9 |
| 20260505061534 | 59 | 324 | 0.0 | 5.2 | 0.00 | 0.00 | 0.00 | 75 | 1005.6 |
| 20260505061034 | 59 | 32 | 0.0 | 0.9 | 0.00 | 0.00 | 0.00 | 75 | 1005.4 |
| 20260505060536 | 59 | 93 | 0.0 | 0.9 | 0.00 | 0.00 | 0.00 | 75 | 1005.4 |
| 20260505060032 | 60 | 56 | 0.0 | 0.0 | 0.00 | 0.00 | 0.00 | 75 | 1005.1 |
| 20260505055533 | 61 | 99 | 0.0 | 11.3 | 0.00 | 0.00 | 0.00 | 71 | 1005.1 |
| 20260505055028 | 61 | 293 | 0.0 | 11.3 | 0.00 | 0.00 | 0.00 | 69 | 1005.1 |
| 20260505054546 | 63 | 351 | 2.6 | 11.3 | 0.00 | 0.00 | 0.00 | 64 | 1004.9 |
| 20260505054027 | 64 | 297 | 1.7 | 8.7 | 0.00 | 0.00 | 0.00 | 60 | 1005.0 |
| 20260505053523 | 66 | 39 | 2.6 | 15.6 | 0.00 | 0.00 | 0.00 | 57 | 1005.1 |
| 20260505053029 | 68 | 275 | 6.1 | 14.8 | 0.00 | 0.00 | 0.00 | 54 | 1005.3 |
| 20260505052521 | 70 | 33 | 1.7 | 8.7 | 0.00 | 0.00 | 0.00 | 69 | 1004.8 |
| 20260505052019 | 70 | 130 | 0.0 | 0.0 | 0.00 | 0.00 | 0.00 | 73 | 1004.3 |
| 20260505051532 | 69 | 275 | 0.0 | 0.0 | 0.00 | 0.00 | 0.00 | 73 | 1004.1 |
| 20260505051017 | 69 | 293 | 0.0 | 2.6 | 0.00 | 0.00 | 0.00 | 75 | 1003.7 |
| 20260505050521 | 69 | 293 | 0.0 | 2.6 | 0.00 | 0.00 | 0.00 | 75 | 1003.6 |
| 20260505041516 | 70 | 122 | 0.0 | 8.7 | 0.00 | 0.00 | 0.00 | 73 | 1003.3 |
| 20260505041013 | 70 | 136 | 1.7 | 8.7 | 0.00 | 0.00 | 0.00 | 73 | 1003.5 |
| 20260505040513 | 70 | 115 | 2.6 | 8.7 | 0.00 | 0.00 | 0.00 | 73 | 1003.6 |
| 20260505040019 | 70 | 106 | 0.9 | 5.2 | 0.00 | 0.00 | 0.00 | 73 | 1003.5 |
| 20260505035512 | 70 | 106 | 0.0 | 0.9 | 0.00 | 0.00 | 0.00 | 73 | 1003.5 |
| 20260505035012 | 71 | 105 | 0.0 | 1.7 | 0.00 | 0.00 | 0.00 | 73 | 1003.6 |
| 20260505034512 | 71 | 145 | 0.0 | 2.6 | 0.00 | 0.00 | 0.00 | 72 | 1003.7 |
| 20260505034016 | 71 | 104 | 0.0 | 2.6 | 0.00 | 0.00 | 0.00 | 72 | 1003.6 |
| 20260505033512 | 71 | 101 | 0.0 | 0.9 | 0.00 | 0.00 | 0.00 | 71 | 1003.6 |
| 20260505033012 | 72 | 134 | 0.0 | 0.0 | 0.00 | 0.00 | 0.00 | 71 | 1003.6 |
| 20260505032512 | 72 | 145 | 0.0 | 0.0 | 0.00 | 0.00 | 0.00 | 70 | 1003.6 |
| 20260505032013 | 72 | 122 | 0.0 | 0.0 | 0.00 | 0.00 | 0.00 | 69 | 1003.5 |
| 20260505031510 | 72 | 127 | 0.0 | 3.5 | 0.00 | 0.00 | 0.00 | 69 | 1003.5 |
| 20260505031014 | 72 | 147 | 0.0 | 5.2 | 0.00 | 0.00 | 0.00 | 69 | 1003.4 |
| 20260505030513 | 72 | 160 | 0.0 | 7.8 | 0.00 | 0.00 | 0.00 | 68 | 1003.4 |
| 20260505030022 | 72 | 148 | 0.9 | 7.8 | 0.00 | 0.00 | 0.00 | 68 | 1003.4 |
| 20260505025511 | 72 | 164 | 0.0 | 0.9 | 0.00 | 0.00 | 0.00 | 68 | 1003.3 |
| 20260505025011 | 72 | 145 | 0.0 | 0.0 | 0.00 | 0.00 | 0.00 | 68 | 1003.2 |
| 20260505024510 | 73 | 148 | 0.0 | 0.0 | 0.00 | 0.00 | 0.00 | 67 | 1003.2 |
| 20260505024010 | 73 | 149 | 0.0 | 0.0 | 0.00 | 0.00 | 0.00 | 67 | 1003.0 |
| 20260505023509 | 73 | 113 | 0.0 | 0.0 | 0.00 | 0.00 | 0.00 | 66 | 1003.0 |
| 20260505023009 | 73 | 148 | 0.0 | 0.0 | 0.00 | 0.00 | 0.00 | 66 | 1002.9 |
| 20260505022509 | 73 | 155 | 0.0 | 0.0 | 0.00 | 0.00 | 0.00 | 65 | 1002.7 |
| 20260505022009 | 73 | 145 | 0.0 | 0.0 | 0.00 | 0.00 | 0.00 | 64 | 1002.7 |
| 20260505021509 | 73 | 142 | 0.0 | 0.0 | 0.00 | 0.00 | 0.00 | 64 | 1002.6 |
| 20260505021009 | 73 | 142 | 0.0 | 0.0 | 0.00 | 0.00 | 0.00 | 64 | 1002.5 |
| 20260505020508 | 74 | 148 | 0.0 | 0.0 | 0.00 | 0.00 | 0.00 | 63 | 1002.4 |
| 20260505020008 | 74 | 134 | 0.0 | 0.0 | 0.00 | 0.00 | 0.00 | 63 | 1002.4 |
| 20260505015508 | 74 | 134 | 0.0 | 0.0 | 0.00 | 0.00 | 0.00 | 63 | 1002.4 |
| 20260505015008 | 74 | 147 | 0.0 | 0.0 | 0.00 | 0.00 | 0.00 | 63 | 1002.3 |
| 20260505014507 | 74 | 143 | 0.0 | 0.0 | 0.00 | 0.00 | 0.00 | 62 | 1002.2 |
| 20260505014008 | 75 | 143 | 0.0 | 0.0 | 0.00 | 0.00 | 0.00 | 62 | 1002.2 |
| 20260505013507 | 75 | 142 | 0.0 | 0.0 | 0.00 | 0.00 | 0.00 | 62 | 1002.1 |
| 20260505013007 | 75 | 143 | 0.0 | 0.0 | 0.00 | 0.00 | 0.00 | 61 | 1002.0 |
| 20260505012507 | 75 | 213 | 0.0 | 0.0 | 0.00 | 0.00 | 0.00 | 60 | 1002.0 |
| 20260505012010 | 76 | 212 | 0.0 | 0.0 | 0.00 | 0.00 | 0.00 | 59 | 1001.9 |
| 20260505011510 | 76 | 218 | 0.0 | 0.0 | 0.00 | 0.00 | 0.00 | 58 | 1001.8 |
| 20260505011008 | 77 | 218 | 0.0 | 0.0 | 0.00 | 0.00 | 0.00 | 57 | 1001.7 |
| 20260505010506 | 77 | 218 | 0.0 | 0.0 | 0.00 | 0.00 | 0.00 | 57 | 1001.7 |
| 20260505010006 | 78 | 174 | 0.0 | 0.0 | 0.00 | 0.00 | 0.00 | 56 | 1001.6 |
| 20260505005506 | 78 | 143 | 0.0 | 0.0 | 0.00 | 0.00 | 0.00 | 55 | 1001.5 |
| 20260505005006 | 79 | 141 | 0.0 | 0.0 | 0.00 | 0.00 | 0.00 | 55 | 1001.5 |
| 20260505004508 | 79 | 141 | 0.0 | 0.0 | 0.00 | 0.00 | 0.00 | 53 | 1001.4 |
| 20260505004005 | 80 | 132 | 0.0 | 0.0 | 0.00 | 0.00 | 0.00 | 53 | 1001.3 |
| 20260505003510 | 80 | 156 | 0.0 | 0.0 | 0.00 | 0.00 | 0.00 | 52 | 1001.3 |
| 20260505003005 | 80 | 155 | 0.0 | 0.0 | 0.00 | 0.00 | 0.00 | 52 | 1001.3 |
| 20260505002505 | 80 | 132 | 0.0 | 0.0 | 0.00 | 0.00 | 0.00 | 52 | 1001.2 |
| 20260505002004 | 79 | 132 | 0.0 | 0.0 | 0.00 | 0.00 | 0.00 | 52 | 1001.3 |
| 20260505001504 | 79 | 138 | 0.0 | 0.0 | 0.00 | 0.00 | 0.00 | 52 | 1001.3 |
| 20260505001003 | 80 | 125 | 0.0 | 3.5 | 0.00 | 0.00 | 0.00 | 51 | 1001.3 |
| 20260505000503 | 80 | 239 | 0.0 | 3.5 | 0.00 | 0.00 | 0.00 | 51 | 1001.3 |
| 20260505000004 | 80 | 238 | 0.0 | 3.5 | 0.00 | 0.00 | 0.00 | 51 | 1001.3 |
| 20260504235503 | 80 | 271 | 0.0 | 4.3 | 0.00 | 0.00 | 0.00 | 50 | 1001.3 |
| 20260504235003 | 80 | 122 | 0.0 | 4.3 | 0.00 | 0.00 | 0.00 | 50 | 1001.3 |
| 20260504234505 | 81 | 132 | 0.0 | 5.2 | 0.00 | 0.00 | 0.00 | 48 | 1001.2 |
| 20260504234002 | 81 | 132 | 0.0 | 5.2 | 0.00 | 0.00 | 0.00 | 48 | 1001.3 |
| 20260504233503 | 81 | 273 | 0.0 | 1.7 | 0.00 | 0.00 | 0.00 | 47 | 1001.4 |
| 20260504233002 | 82 | 255 | 0.0 | 0.9 | 0.00 | 0.00 | 0.00 | 47 | 1001.3 |
| 20260504232501 | 82 | 131 | 0.0 | 3.5 | 0.00 | 0.00 | 0.00 | 46 | 1001.4 |
| 20260504232002 | 83 | 150 | 0.0 | 3.5 | 0.00 | 0.00 | 0.00 | 45 | 1001.4 |
| 20260504231501 | 83 | 158 | 0.0 | 3.5 | 0.00 | 0.00 | 0.00 | 45 | 1001.3 |
| 20260504231100 | 83 | 215 | 0.0 | 1.7 | 0.00 | 0.00 | 0.00 | 45 | 1001.4 |
| 20260504230559 | 83 | 257 | 0.0 | 3.5 | 0.00 | 0.00 | 0.00 | 45 | 1001.5 |
| 20260504230058 | 83 | 264 | 0.0 | 6.1 | 0.00 | 0.00 | 0.00 | 47 | 1001.4 |
| 20260504225602 | 82 | 283 | 0.9 | 6.1 | 0.00 | 0.00 | 0.00 | 47 | 1001.4 |
| 20260504225100 | 81 | 204 | 0.0 | 3.5 | 0.00 | 0.00 | 0.00 | 48 | 1001.4 |
| 20260504224601 | 81 | 250 | 0.0 | 6.1 | 0.00 | 0.00 | 0.00 | 47 | 1001.4 |
| 20260504224057 | 81 | 243 | 0.0 | 7.0 | 0.00 | 0.00 | 0.00 | 47 | 1001.4 |
| 20260504223556 | 81 | 214 | 1.7 | 7.0 | 0.00 | 0.00 | 0.00 | 47 | 1001.5 |
| 20260504223057 | 81 | 259 | 0.0 | 5.2 | 0.00 | 0.00 | 0.00 | 48 | 1001.5 |
| 20260504222556 | 81 | 232 | 0.0 | 3.5 | 0.00 | 0.00 | 0.00 | 47 | 1001.5 |
| 20260504222055 | 81 | 259 | 0.0 | 9.6 | 0.00 | 0.00 | 0.00 | 47 | 1001.6 |
| 20260504221555 | 81 | 142 | 0.9 | 9.6 | 0.00 | 0.00 | 0.00 | 47 | 1001.5 |
| 20260504221054 | 80 | 134 | 0.9 | 4.3 | 0.00 | 0.00 | 0.00 | 47 | 1001.6 |
| 20260504220556 | 80 | 129 | 0.0 | 2.6 | 0.00 | 0.00 | 0.00 | 47 | 1001.6 |
| 20260504220112 | 80 | 186 | 0.0 | 3.5 | 0.00 | 0.00 | 0.00 | 47 | 1001.7 |
| 20260504215553 | 81 | 249 | 0.0 | 3.5 | 0.00 | 0.00 | 0.00 | 46 | 1001.8 |
| 20260504215057 | 81 | 240 | 0.0 | 6.1 | 0.00 | 0.00 | 0.00 | 45 | 1001.8 |
| 20260504214556 | 81 | 219 | 0.0 | 7.8 | 0.00 | 0.00 | 0.00 | 45 | 1001.8 |
| 20260504214052 | 81 | 236 | 0.9 | 7.8 | 0.00 | 0.00 | 0.00 | 44 | 1001.8 |
| 20260504213551 | 81 | 259 | 0.0 | 3.5 | 0.00 | 0.00 | 0.00 | 45 | 1001.9 |
| 20260504213058 | 81 | 148 | 0.0 | 13.9 | 0.00 | 0.00 | 0.00 | 44 | 1001.9 |
| 20260504212551 | 81 | 145 | 1.7 | 13.9 | 0.00 | 0.00 | 0.00 | 43 | 1001.9 |
| 20260504212051 | 82 | 232 | 0.0 | 12.2 | 0.00 | 0.00 | 0.00 | 43 | 1001.9 |
| 20260504211554 | 82 | 248 | 1.7 | 10.4 | 0.00 | 0.00 | 0.00 | 44 | 1001.9 |
| 20260504211053 | 82 | 36 | 3.5 | 9.6 | 0.00 | 0.00 | 0.00 | 44 | 1001.9 |
| 20260504210549 | 82 | 108 | 0.0 | 11.3 | 0.00 | 0.00 | 0.00 | 44 | 1001.9 |
| 20260504210051 | 82 | 237 | 0.0 | 12.2 | 0.00 | 0.00 | 0.00 | 45 | 1002.0 |
| 20260504205552 | 82 | 250 | 1.7 | 11.3 | 0.00 | 0.00 | 0.00 | 44 | 1002.0 |
| 20260504205049 | 82 | 127 | 1.7 | 11.3 | 0.00 | 0.00 | 0.00 | 42 | 1002.1 |
| 20260504204548 | 82 | 256 | 2.6 | 11.3 | 0.00 | 0.00 | 0.00 | 42 | 1002.0 |
| 20260504204047 | 82 | 170 | 0.9 | 11.3 | 0.00 | 0.00 | 0.00 | 43 | 1002.1 |
| 20260504203546 | 82 | 129 | 0.0 | 9.6 | 0.00 | 0.00 | 0.00 | 44 | 1002.1 |
| 20260504203045 | 82 | 243 | 1.7 | 13.0 | 0.00 | 0.00 | 0.00 | 44 | 1002.2 |
| 20260504202545 | 82 | 166 | 2.6 | 7.8 | 0.00 | 0.00 | 0.00 | 42 | 1002.3 |
| 20260504202045 | 82 | 242 | 0.0 | 15.6 | 0.00 | 0.00 | 0.00 | 44 | 1002.3 |
| 20260504201543 | 82 | 171 | 2.6 | 14.8 | 0.00 | 0.00 | 0.00 | 44 | 1002.3 |
| 20260504201045 | 82 | 248 | 1.7 | 8.7 | 0.00 | 0.00 | 0.00 | 44 | 1002.3 |
| 20260504200544 | 82 | 231 | 2.6 | 8.7 | 0.00 | 0.00 | 0.00 | 44 | 1002.3 |
| 20260504200049 | 82 | 122 | 0.0 | 8.7 | 0.00 | 0.00 | 0.00 | 46 | 1002.4 |
| 20260504195542 | 82 | 169 | 0.9 | 11.3 | 0.00 | 0.00 | 0.00 | 45 | 1002.4 |
| 20260504195042 | 82 | 162 | 1.7 | 11.3 | 0.00 | 0.00 | 0.00 | 45 | 1002.4 |
| 20260504194545 | 81 | 99 | 0.9 | 7.0 | 0.00 | 0.00 | 0.00 | 46 | 1002.4 |
| 20260504194043 | 81 | 147 | 0.0 | 10.4 | 0.00 | 0.00 | 0.00 | 45 | 1002.4 |
| 20260504193541 | 81 | 136 | 2.6 | 10.4 | 0.00 | 0.00 | 0.00 | 45 | 1002.5 |
| 20260504193039 | 81 | 91 | 0.0 | 11.3 | 0.00 | 0.00 | 0.00 | 48 | 1002.4 |
| 20260504192539 | 81 | 242 | 2.6 | 11.3 | 0.00 | 0.00 | 0.00 | 45 | 1002.5 |
| 20260504192038 | 81 | 176 | 2.6 | 11.3 | 0.00 | 0.00 | 0.00 | 46 | 1002.5 |
| 20260504191550 | 80 | 130 | 2.6 | 11.3 | 0.00 | 0.00 | 0.00 | 45 | 1002.5 |
| 20260504191038 | 80 | 127 | 1.7 | 10.4 | 0.00 | 0.00 | 0.00 | 47 | 1002.6 |
| 20260504190536 | 80 | 132 | 0.9 | 13.9 | 0.00 | 0.00 | 0.00 | 46 | 1002.6 |
| 20260504190038 | 80 | 235 | 4.3 | 13.9 | 0.00 | 0.00 | 0.00 | 46 | 1002.6 |
| 20260504185535 | 80 | 274 | 2.6 | 9.6 | 0.00 | 0.00 | 0.00 | 44 | 1002.6 |
| 20260504185034 | 80 | 165 | 2.6 | 13.0 | 0.00 | 0.00 | 0.00 | 44 | 1002.7 |
| 20260504184545 | 80 | 232 | 3.5 | 13.0 | 0.00 | 0.00 | 0.00 | 46 | 1002.8 |
| 20260504184034 | 80 | 127 | 5.2 | 13.0 | 0.00 | 0.00 | 0.00 | 44 | 1002.7 |
| 20260504183536 | 80 | 267 | 1.7 | 14.8 | 0.00 | 0.00 | 0.00 | 44 | 1002.9 |
| 20260504183041 | 80 | 129 | 1.7 | 9.6 | 0.00 | 0.00 | 0.00 | 46 | 1002.8 |
| 20260504182532 | 80 | 293 | 0.0 | 6.1 | 0.00 | 0.00 | 0.00 | 45 | 1002.8 |
| 20260504182035 | 80 | 267 | 0.9 | 9.6 | 0.00 | 0.00 | 0.00 | 45 | 1002.8 |
| 20260504181531 | 79 | 129 | 0.0 | 13.9 | 0.00 | 0.00 | 0.00 | 47 | 1002.9 |
| 20260504181029 | 79 | 139 | 3.5 | 13.9 | 0.00 | 0.00 | 0.00 | 46 | 1002.9 |
| 20260504180528 | 78 | 184 | 1.7 | 7.8 | 0.00 | 0.00 | 0.00 | 47 | 1003.0 |
| 20260504180029 | 78 | 250 | 3.5 | 11.3 | 0.00 | 0.00 | 0.00 | 46 | 1003.1 |
| 20260504175527 | 78 | 114 | 0.0 | 13.9 | 0.00 | 0.00 | 0.00 | 46 | 1003.1 |
| 20260504175030 | 78 | 203 | 1.7 | 9.6 | 0.00 | 0.00 | 0.00 | 46 | 1003.2 |
| 20260504174525 | 78 | 290 | 0.0 | 9.6 | 0.00 | 0.00 | 0.00 | 46 | 1003.3 |
| 20260504174024 | 78 | 215 | 1.7 | 13.9 | 0.00 | 0.00 | 0.00 | 47 | 1003.3 |
| 20260504173523 | 78 | 239 | 5.2 | 13.9 | 0.00 | 0.00 | 0.00 | 46 | 1003.4 |
| 20260504173026 | 78 | 73 | 0.9 | 11.3 | 0.00 | 0.00 | 0.00 | 48 | 1003.4 |
| 20260504172524 | 78 | 148 | 3.5 | 11.3 | 0.00 | 0.00 | 0.00 | 47 | 1003.4 |
| 20260504172021 | 77 | 193 | 4.3 | 11.3 | 0.00 | 0.00 | 0.00 | 48 | 1003.5 |
| 20260504171520 | 77 | 106 | 0.9 | 13.0 | 0.00 | 0.00 | 0.00 | 50 | 1003.5 |
| 20260504171022 | 76 | 145 | 3.5 | 13.0 | 0.00 | 0.00 | 0.00 | 49 | 1003.5 |
| 20260504170519 | 76 | 267 | 3.5 | 12.2 | 0.00 | 0.00 | 0.00 | 49 | 1003.5 |
| 20260504151057 | 71 | 240 | 3.5 | 12.2 | 0.00 | 0.00 | 0.00 | 53 | 1004.0 |
| 20260504150559 | 71 | 155 | 2.6 | 10.4 | 0.00 | 0.00 | 0.00 | 54 | 1004.0 |
| 20260504141047 | 69 | 156 | 0.0 | 10.4 | 0.00 | 0.00 | 0.00 | 57 | 1004.4 |
| 20260504140547 | 68 | 153 | 6.1 | 10.4 | 0.00 | 0.00 | 0.00 | 56 | 1004.3 |
| 20260504130539 | 66 | 132 | 0.0 | 7.0 | 0.00 | 0.00 | 0.00 | 58 | 1004.4 |
| 20260504110532 | 65 | 110 | 0.0 | 0.0 | 0.00 | 0.00 | 0.00 | 57 | 1004.9 |
| 20260504100529 | 66 | 267 | 0.0 | 8.7 | 0.00 | 0.00 | 0.00 | 54 | 1004.9 |